Maple Grove, Kentucky
Current Conditions -  °F | °C
As of 7:36 PM on Wednesday 26 Nov 2014 (Local Time) from KHOP Reporting Station
Overcast Overcast  
Wind Chill: 39°   Ceiling: 1800
Heat Index: 39°   Visibility: 10mi
Dew Point: 39°   Wind: 0mph
Humidity: 100%   Direction: NA
Pressure: 30.02"   Gusts: NA
Location:  36.8031°N, 87.8159°W
Report Text: KHOP 270136Z 00000KT 10SM BKN018 OVC024 04/04 A3002 RMK AO2A SLP170
Loading
Personal Weather Stations






























Interactive Weather Map New forecast layout! Learn more

10-Day Weather Forecast

Advertisements
Track Severe Weather on mobile